Donald, Oregon
Current Conditions -  °F | °C
As of 5:53 AM on Saturday 22 Nov 2014 (Local Time) from KUAO Reporting Station
Overcast Overcast  
Wind Chill: 45°   Ceiling: 8500
Heat Index: 45°   Visibility: 10mi
Dew Point: 45°   Wind: 3mph
Humidity: 100%   Direction: 190°S
Pressure: 29.78"   Gusts: NA
Location:  45.22°N, 122.84°W
Report Text: KUAO 221353Z AUTO 19003KT 10SM FEW060 OVC085 07/07 A2978 RMK AO2 SLP086 T00720072
Loading
Personal Weather Stations






























Interactive Weather Map New forecast layout! Learn more

10-Day Weather Forecast

Advertisements
Track Severe Weather on mobile